sensor_id;sensor_type;location;lat;lon;timestamp;pressure;altitude;pressure_sealevel;temperature;humidity
5455;BME280;2750;49.050;9.250;2022-11-20T00:01:35;98310.53;;;8.66;89.24
5455;BME280;2750;49.050;9.250;2022-11-20T00:06:39;98301.69;;;8.70;88.60
5455;BME280;2750;49.050;9.250;2022-11-20T00:11:40;98303.25;;;8.74;88.69
5455;BME280;2750;49.050;9.250;2022-11-20T00:16:42;98306.78;;;8.54;89.08
5455;BME280;2750;49.050;9.250;2022-11-20T00:21:45;98305.16;;;8.13;91.16
5455;BME280;2750;49.050;9.250;2022-11-20T00:26:46;98306.16;;;8.31;92.68
5455;BME280;2750;49.050;9.250;2022-11-20T00:31:47;98294.97;;;8.49;91.65
5455;BME280;2750;49.050;9.250;2022-11-20T00:36:50;98300.00;;;8.33;92.85
5455;BME280;2750;49.050;9.250;2022-11-20T00:41:52;98291.16;;;8.75;91.43
5455;BME280;2750;49.050;9.250;2022-11-20T00:46:53;98300.66;;;8.93;89.57
5455;BME280;2750;49.050;9.250;2022-11-20T00:51:56;98303.00;;;8.97;90.03
5455;BME280;2750;49.050;9.250;2022-11-20T00:56:58;98309.31;;;9.09;89.71
5455;BME280;2750;49.050;9.250;2022-11-20T01:01:59;98301.50;;;9.10;89.99
5455;BME280;2750;49.050;9.250;2022-11-20T01:07:02;98308.41;;;9.10;90.81
5455;BME280;2750;49.050;9.250;2022-11-20T01:12:04;98309.22;;;8.93;90.77
5455;BME280;2750;49.050;9.250;2022-11-20T01:17:06;98308.47;;;9.08;89.69
5455;BME280;2750;49.050;9.250;2022-11-20T01:22:08;98316.69;;;8.45;92.10
5455;BME280;2750;49.050;9.250;2022-11-20T01:27:10;98309.28;;;8.56;93.51
5455;BME280;2750;49.050;9.250;2022-11-20T01:32:11;98312.22;;;9.03;90.77
5455;BME280;2750;49.050;9.250;2022-11-20T01:37:14;98308.94;;;8.99;90.34
5455;BME280;2750;49.050;9.250;2022-11-20T01:42:16;98308.47;;;9.08;91.17
5455;BME280;2750;49.050;9.250;2022-11-20T01:47:38;98303.78;;;8.25;92.07
5455;BME280;2750;49.050;9.250;2022-11-20T01:52:46;98300.31;;;8.63;94.16
5455;BME280;2750;49.050;9.250;2022-11-20T01:57:49;98297.41;;;8.52;93.05
5455;BME280;2750;49.050;9.250;2022-11-20T02:02:54;98291.25;;;8.90;92.27
5455;BME280;2750;49.050;9.250;2022-11-20T02:07:59;98293.25;;;9.02;91.45
5455;BME280;2750;49.050;9.250;2022-11-20T02:13:01;98293.19;;;9.04;92.59
5455;BME280;2750;49.050;9.250;2022-11-20T02:18:21;98291.69;;;8.45;94.07
5455;BME280;2750;49.050;9.250;2022-11-20T02:23:28;98291.66;;;8.64;95.30
5455;BME280;2750;49.050;9.250;2022-11-20T02:28:34;98289.03;;;8.47;96.61
5455;BME280;2750;49.050;9.250;2022-11-20T02:33:36;98290.66;;;8.67;95.98
5455;BME280;2750;49.050;9.250;2022-11-20T02:38:37;98291.94;;;8.77;95.60
5455;BME280;2750;49.050;9.250;2022-11-20T02:43:40;98297.78;;;8.80;95.77
5455;BME280;2750;49.050;9.250;2022-11-20T02:48:42;98301.59;;;8.73;96.08
5455;BME280;2750;49.050;9.250;2022-11-20T02:53:43;98286.50;;;8.64;96.34
5455;BME280;2750;49.050;9.250;2022-11-20T02:58:46;98282.19;;;8.46;98.34
5455;BME280;2750;49.050;9.250;2022-11-20T03:03:48;98280.91;;;8.73;96.57
5455;BME280;2750;49.050;9.250;2022-11-20T03:08:49;98278.31;;;8.73;96.42
5455;BME280;2750;49.050;9.250;2022-11-20T03:13:52;98280.19;;;8.51;96.65
5455;BME280;2750;49.050;9.250;2022-11-20T03:18:54;98278.63;;;8.84;96.64
5455;BME280;2750;49.050;9.250;2022-11-20T03:23:55;98265.16;;;8.78;96.54
5455;BME280;2750;49.050;9.250;2022-11-20T03:29:00;98273.88;;;8.75;97.86
5455;BME280;2750;49.050;9.250;2022-11-20T03:34:03;98258.41;;;9.09;95.97
5455;BME280;2750;49.050;9.250;2022-11-20T03:39:05;98255.34;;;9.01;95.85
5455;BME280;2750;49.050;9.250;2022-11-20T03:44:10;98257.00;;;8.68;97.02
5455;BME280;2750;49.050;9.250;2022-11-20T03:49:12;98252.47;;;8.90;96.15
5455;BME280;2750;49.050;9.250;2022-11-20T03:54:13;98255.50;;;8.45;97.81
5455;BME280;2750;49.050;9.250;2022-11-20T03:59:16;98262.25;;;8.48;97.89
5455;BME280;2750;49.050;9.250;2022-11-20T04:04:18;98255.31;;;8.67;95.91
5455;BME280;2750;49.050;9.250;2022-11-20T04:09:19;98257.41;;;8.59;96.22
5455;BME280;2750;49.050;9.250;2022-11-20T04:14:22;98265.75;;;8.66;96.31
5455;BME280;2750;49.050;9.250;2022-11-20T04:19:24;98258.78;;;8.85;95.44
5455;BME280;2750;49.050;9.250;2022-11-20T04:24:26;98264.00;;;8.47;97.26
5455;BME280;2750;49.050;9.250;2022-11-20T04:29:29;98259.31;;;8.55;96.39
5455;BME280;2750;49.050;9.250;2022-11-20T04:34:30;98245.44;;;8.75;95.46
5455;BME280;2750;49.050;9.250;2022-11-20T04:39:32;98243.44;;;8.63;94.89
5455;BME280;2750;49.050;9.250;2022-11-20T04:44:35;98249.72;;;8.93;95.00
5455;BME280;2750;49.050;9.250;2022-11-20T04:49:36;98249.06;;;8.54;96.66
5455;BME280;2750;49.050;9.250;2022-11-20T04:54:38;98256.63;;;8.76;95.19
5455;BME280;2750;49.050;9.250;2022-11-20T04:59:41;98245.97;;;8.64;95.49
5455;BME280;2750;49.050;9.250;2022-11-20T05:04:42;98245.69;;;8.52;95.88
5455;BME280;2750;49.050;9.250;2022-11-20T05:09:44;98235.03;;;8.41;96.84
5455;BME280;2750;49.050;9.250;2022-11-20T05:14:46;98235.75;;;8.24;97.90
5455;BME280;2750;49.050;9.250;2022-11-20T05:19:48;98239.25;;;8.60;96.16
5455;BME280;2750;49.050;9.250;2022-11-20T05:24:49;98239.44;;;8.75;96.61
5455;BME280;2750;49.050;9.250;2022-11-20T05:29:52;98245.16;;;8.98;94.51
5455;BME280;2750;49.050;9.250;2022-11-20T05:34:54;98246.63;;;9.21;94.43
5455;BME280;2750;49.050;9.250;2022-11-20T05:39:55;98241.06;;;9.11;93.54
5455;BME280;2750;49.050;9.250;2022-11-20T05:44:59;98250.06;;;9.04;94.98
5455;BME280;2750;49.050;9.250;2022-11-20T05:50:00;98246.84;;;8.99;94.63
5455;BME280;2750;49.050;9.250;2022-11-20T05:55:02;98237.88;;;9.06;95.27
5455;BME280;2750;49.050;9.250;2022-11-20T06:00:07;98234.69;;;9.19;93.42
5455;BME280;2750;49.050;9.250;2022-11-20T06:05:09;98233.50;;;8.90;95.27
5455;BME280;2750;49.050;9.250;2022-11-20T06:10:10;98238.16;;;8.83;96.45
5455;BME280;2750;49.050;9.250;2022-11-20T06:15:13;98234.06;;;9.13;95.33
5455;BME280;2750;49.050;9.250;2022-11-20T06:20:15;98228.25;;;8.74;96.75
5455;BME280;2750;49.050;9.250;2022-11-20T06:25:17;98227.44;;;8.91;95.10
5455;BME280;2750;49.050;9.250;2022-11-20T06:30:19;98229.44;;;8.67;95.87
5455;BME280;2750;49.050;9.250;2022-11-20T06:35:21;98232.06;;;8.84;95.92
5455;BME280;2750;49.050;9.250;2022-11-20T06:40:22;98238.78;;;9.23;93.79
5455;BME280;2750;49.050;9.250;2022-11-20T06:45:25;98249.66;;;8.95;93.76
5455;BME280;2750;49.050;9.250;2022-11-20T06:50:27;98239.84;;;9.01;93.99
5455;BME280;2750;49.050;9.250;2022-11-20T06:55:28;98243.78;;;8.91;94.23
5455;BME280;2750;49.050;9.250;2022-11-20T07:00:31;98242.63;;;8.80;95.21
5455;BME280;2750;49.050;9.250;2022-11-20T07:05:33;98252.00;;;8.82;95.86
5455;BME280;2750;49.050;9.250;2022-11-20T07:10:35;98266.19;;;9.09;95.40
5455;BME280;2750;49.050;9.250;2022-11-20T07:15:38;98266.19;;;9.27;94.50
5455;BME280;2750;49.050;9.250;2022-11-20T07:20:39;98267.69;;;9.48;93.07
5455;BME280;2750;49.050;9.250;2022-11-20T07:25:41;98270.53;;;9.26;93.19
5455;BME280;2750;49.050;9.250;2022-11-20T07:30:49;98267.41;;;9.20;94.19
5455;BME280;2750;49.050;9.250;2022-11-20T07:35:50;98278.47;;;8.87;95.41
5455;BME280;2750;49.050;9.250;2022-11-20T07:40:53;98273.72;;;8.78;96.91
5455;BME280;2750;49.050;9.250;2022-11-20T07:45:57;98275.63;;;8.75;97.76
5455;BME280;2750;49.050;9.250;2022-11-20T07:50:59;98269.72;;;8.73;98.30
5455;BME280;2750;49.050;9.250;2022-11-20T07:56:01;98269.97;;;9.02;96.93
5455;BME280;2750;49.050;9.250;2022-11-20T08:01:05;98282.28;;;8.80;98.16
5455;BME280;2750;49.050;9.250;2022-11-20T08:06:07;98276.03;;;8.84;98.91
5455;BME280;2750;49.050;9.250;2022-11-20T08:11:09;98270.28;;;8.96;99.05
5455;BME280;2750;49.050;9.250;2022-11-20T08:16:29;98280.75;;;8.76;99.25
5455;BME280;2750;49.050;9.250;2022-11-20T08:21:31;98289.41;;;8.75;100.00
5455;BME280;2750;49.050;9.250;2022-11-20T08:26:33;98287.63;;;8.58;100.00
5455;BME280;2750;49.050;9.250;2022-11-20T08:31:36;98298.38;;;8.49;100.00
5455;BME280;2750;49.050;9.250;2022-11-20T08:36:38;98295.47;;;8.74;100.00
5455;BME280;2750;49.050;9.250;2022-11-20T08:41:39;98305.06;;;8.72;100.00
5455;BME280;2750;49.050;9.250;2022-11-20T08:46:42;98296.94;;;8.80;100.00
5455;BME280;2750;49.050;9.250;2022-11-20T08:51:46;98302.06;;;8.81;100.00
5455;BME280;2750;49.050;9.250;2022-11-20T08:56:51;98306.63;;;8.93;100.00
5455;BME280;2750;49.050;9.250;2022-11-20T09:01:54;98312.25;;;8.84;100.00
5455;BME280;2750;49.050;9.250;2022-11-20T09:06:56;98319.72;;;8.90;100.00
5455;BME280;2750;49.050;9.250;2022-11-20T09:11:57;98319.81;;;8.70;100.00
5455;BME280;2750;49.050;9.250;2022-11-20T09:17:00;98325.34;;;8.62;100.00
5455;BME280;2750;49.050;9.250;2022-11-20T09:22:02;98312.75;;;8.92;100.00
5455;BME280;2750;49.050;9.250;2022-11-20T09:27:04;98299.91;;;8.72;100.00
5455;BME280;2750;49.050;9.250;2022-11-20T09:32:07;98314.38;;;8.93;100.00
5455;BME280;2750;49.050;9.250;2022-11-20T09:37:09;98306.38;;;9.17;100.00
5455;BME280;2750;49.050;9.250;2022-11-20T09:42:30;98317.38;;;9.39;100.00
5455;BME280;2750;49.050;9.250;2022-11-20T09:47:45;98314.59;;;9.07;100.00
5455;BME280;2750;49.050;9.250;2022-11-20T09:52:56;98330.28;;;9.22;100.00
5455;BME280;2750;49.050;9.250;2022-11-20T09:58:01;98323.13;;;9.27;100.00
5455;BME280;2750;49.050;9.250;2022-11-20T10:03:13;98318.81;;;9.27;100.00
5455;BME280;2750;49.050;9.250;2022-11-20T10:08:19;98324.97;;;9.59;100.00
5455;BME280;2750;49.050;9.250;2022-11-20T10:13:38;98310.66;;;9.69;99.95
5455;BME280;2750;49.050;9.250;2022-11-20T10:18:54;98315.97;;;9.83;98.21
5455;BME280;2750;49.050;9.250;2022-11-20T10:29:32;98316.59;;;9.54;95.52
5455;BME280;2750;49.050;9.250;2022-11-20T10:34:46;98326.56;;;9.79;97.02
5455;BME280;2750;49.050;9.250;2022-11-20T10:39:54;98328.47;;;9.75;97.22
5455;BME280;2750;49.050;9.250;2022-11-20T10:45:02;98321.97;;;9.84;97.64
5455;BME280;2750;49.050;9.250;2022-11-20T10:50:16;98323.91;;;9.80;97.36
5455;BME280;2750;49.050;9.250;2022-11-20T10:55:27;98321.88;;;10.02;96.57
5455;BME280;2750;49.050;9.250;2022-11-20T11:00:31;98311.53;;;9.85;97.11
5455;BME280;2750;49.050;9.250;2022-11-20T11:05:38;98315.28;;;9.63;97.14
5455;BME280;2750;49.050;9.250;2022-11-20T11:10:46;98323.44;;;9.72;97.76
5455;BME280;2750;49.050;9.250;2022-11-20T11:15:49;98311.03;;;9.62;96.02
5455;BME280;2750;49.050;9.250;2022-11-20T11:20:54;98299.06;;;9.59;96.07
5455;BME280;2750;49.050;9.250;2022-11-20T11:25:57;98291.28;;;9.76;96.62
5455;BME280;2750;49.050;9.250;2022-11-20T11:30:59;98280.13;;;9.41;96.71
5455;BME280;2750;49.050;9.250;2022-11-20T11:36:04;98284.78;;;9.35;99.36
5455;BME280;2750;49.050;9.250;2022-11-20T11:41:20;98275.28;;;9.68;97.38
5455;BME280;2750;49.050;9.250;2022-11-20T11:46:29;98265.22;;;9.79;95.71
5455;BME280;2750;49.050;9.250;2022-11-20T11:51:38;98269.63;;;10.10;94.81
5455;BME280;2750;49.050;9.250;2022-11-20T11:56:40;98250.63;;;10.42;92.44
5455;BME280;2750;49.050;9.250;2022-11-20T12:01:44;98247.34;;;10.70;93.80
5455;BME280;2750;49.050;9.250;2022-11-20T12:06:53;98249.94;;;10.39;92.17
5455;BME280;2750;49.050;9.250;2022-11-20T12:12:05;98241.72;;;10.62;91.31
5455;BME280;2750;49.050;9.250;2022-11-20T12:17:11;98244.09;;;10.51;90.98
5455;BME280;2750;49.050;9.250;2022-11-20T12:22:23;98238.91;;;10.51;91.51
5455;BME280;2750;49.050;9.250;2022-11-20T12:27:42;98240.41;;;10.55;91.84
5455;BME280;2750;49.050;9.250;2022-11-20T12:33:08;98227.53;;;10.69;90.17
5455;BME280;2750;49.050;9.250;2022-11-20T12:38:32;98227.63;;;10.97;88.58
5455;BME280;2750;49.050;9.250;2022-11-20T12:43:44;98230.94;;;10.70;87.46
5455;BME280;2750;49.050;9.250;2022-11-20T12:49:28;98226.22;;;9.98;86.80
5455;BME280;2750;49.050;9.250;2022-11-20T13:00:08;98228.81;;;10.14;87.43
5455;BME280;2750;49.050;9.250;2022-11-20T13:05:19;98240.75;;;10.33;88.07
5455;BME280;2750;49.050;9.250;2022-11-20T13:10:31;98227.66;;;10.66;86.55
5455;BME280;2750;49.050;9.250;2022-11-20T13:15:43;98226.28;;;10.45;87.13
5455;BME280;2750;49.050;9.250;2022-11-20T13:20:48;98224.81;;;10.71;88.26
5455;BME280;2750;49.050;9.250;2022-11-20T13:26:03;98215.63;;;11.11;85.53
5455;BME280;2750;49.050;9.250;2022-11-20T13:31:24;98205.25;;;11.39;84.96
5455;BME280;2750;49.050;9.250;2022-11-20T13:36:30;98192.31;;;11.81;83.11
5455;BME280;2750;49.050;9.250;2022-11-20T13:41:36;98189.06;;;12.06;81.40
5455;BME280;2750;49.050;9.250;2022-11-20T13:46:41;98185.06;;;11.44;82.14
5455;BME280;2750;49.050;9.250;2022-11-20T13:51:46;98202.78;;;10.78;84.36
5455;BME280;2750;49.050;9.250;2022-11-20T13:56:59;98197.16;;;10.40;84.85
5455;BME280;2750;49.050;9.250;2022-11-20T14:02:10;98204.88;;;10.26;84.38
5455;BME280;2750;49.050;9.250;2022-11-20T14:07:14;98191.50;;;10.18;84.09
5455;BME280;2750;49.050;9.250;2022-11-20T14:12:20;98198.41;;;10.33;84.55
5455;BME280;2750;49.050;9.250;2022-11-20T14:17:23;98195.94;;;10.16;85.38
5455;BME280;2750;49.050;9.250;2022-11-20T14:22:26;98195.75;;;10.19;86.57
5455;BME280;2750;49.050;9.250;2022-11-20T14:27:33;98197.91;;;10.11;87.58
5455;BME280;2750;49.050;9.250;2022-11-20T14:32:35;98195.94;;;10.16;86.51
5455;BME280;2750;49.050;9.250;2022-11-20T14:37:38;98186.47;;;10.46;85.43
5455;BME280;2750;49.050;9.250;2022-11-20T14:42:43;98190.72;;;10.47;84.08
5455;BME280;2750;49.050;9.250;2022-11-20T14:47:45;98173.72;;;10.57;83.57
5455;BME280;2750;49.050;9.250;2022-11-20T14:52:51;98167.53;;;10.44;83.40
5455;BME280;2750;49.050;9.250;2022-11-20T14:57:59;98166.22;;;10.21;82.79
5455;BME280;2750;49.050;9.250;2022-11-20T15:03:01;98164.38;;;9.92;82.80
5455;BME280;2750;49.050;9.250;2022-11-20T15:08:08;98144.72;;;9.88;81.94
5455;BME280;2750;49.050;9.250;2022-11-20T15:13:13;98154.16;;;9.73;82.65
5455;BME280;2750;49.050;9.250;2022-11-20T15:18:18;98143.09;;;9.54;83.27
5455;BME280;2750;49.050;9.250;2022-11-20T15:23:21;98139.94;;;9.32;82.71
5455;BME280;2750;49.050;9.250;2022-11-20T15:28:28;98143.91;;;9.39;83.65
5455;BME280;2750;49.050;9.250;2022-11-20T15:33:32;98151.63;;;9.72;82.73
5455;BME280;2750;49.050;9.250;2022-11-20T15:38:34;98143.91;;;9.54;81.36
5455;BME280;2750;49.050;9.250;2022-11-20T15:43:37;98146.84;;;9.16;82.40
5455;BME280;2750;49.050;9.250;2022-11-20T15:48:41;98137.16;;;9.52;82.80
5455;BME280;2750;49.050;9.250;2022-11-20T15:53:43;98132.03;;;9.35;82.89
5455;BME280;2750;49.050;9.250;2022-11-20T15:58:46;98136.91;;;9.56;83.18
5455;BME280;2750;49.050;9.250;2022-11-20T16:03:48;98127.22;;;9.60;83.94
5455;BME280;2750;49.050;9.250;2022-11-20T16:08:50;98137.25;;;9.66;83.88
5455;BME280;2750;49.050;9.250;2022-11-20T16:13:53;98124.59;;;9.77;84.00
5455;BME280;2750;49.050;9.250;2022-11-20T16:19:13;98133.91;;;9.64;85.44
5455;BME280;2750;49.050;9.250;2022-11-20T16:24:15;98126.22;;;9.63;84.76
5455;BME280;2750;49.050;9.250;2022-11-20T16:29:18;98116.28;;;9.86;83.96
5455;BME280;2750;49.050;9.250;2022-11-20T16:34:20;98115.13;;;9.60;85.02
5455;BME280;2750;49.050;9.250;2022-11-20T16:39:21;98109.44;;;9.54;84.43
5455;BME280;2750;49.050;9.250;2022-11-20T16:44:24;98103.19;;;9.58;84.35
5455;BME280;2750;49.050;9.250;2022-11-20T16:49:26;98103.03;;;9.77;83.72
5455;BME280;2750;49.050;9.250;2022-11-20T16:54:28;98110.69;;;9.78;84.20
5455;BME280;2750;49.050;9.250;2022-11-20T16:59:30;98098.56;;;9.63;83.78
5455;BME280;2750;49.050;9.250;2022-11-20T17:04:32;98102.34;;;9.73;83.93
5455;BME280;2750;49.050;9.250;2022-11-20T17:09:34;98096.88;;;9.62;85.21
5455;BME280;2750;49.050;9.250;2022-11-20T17:14:36;98086.19;;;9.37;85.57
5455;BME280;2750;49.050;9.250;2022-11-20T17:19:38;98083.00;;;9.47;86.25
5455;BME280;2750;49.050;9.250;2022-11-20T17:24:40;98084.94;;;9.59;84.45
5455;BME280;2750;49.050;9.250;2022-11-20T17:29:43;98091.63;;;9.48;85.34
5455;BME280;2750;49.050;9.250;2022-11-20T17:34:45;98088.94;;;9.34;86.96
5455;BME280;2750;49.050;9.250;2022-11-20T17:39:47;98085.72;;;9.62;85.87
5455;BME280;2750;49.050;9.250;2022-11-20T17:44:50;98075.44;;;9.76;84.55
5455;BME280;2750;49.050;9.250;2022-11-20T17:49:52;98072.78;;;9.77;84.69
5455;BME280;2750;49.050;9.250;2022-11-20T17:54:54;98057.47;;;9.57;86.52
5455;BME280;2750;49.050;9.250;2022-11-20T17:59:58;98056.69;;;9.55;86.84
5455;BME280;2750;49.050;9.250;2022-11-20T18:04:59;98040.91;;;9.59;87.61
5455;BME280;2750;49.050;9.250;2022-11-20T18:10:01;98039.25;;;9.74;87.14
5455;BME280;2750;49.050;9.250;2022-11-20T18:15:04;98041.59;;;9.63;88.16
5455;BME280;2750;49.050;9.250;2022-11-20T18:20:07;98032.97;;;9.78;86.92
5455;BME280;2750;49.050;9.250;2022-11-20T18:25:09;98042.91;;;9.54;87.70
5455;BME280;2750;49.050;9.250;2022-11-20T18:30:14;98023.81;;;9.41;89.29
5455;BME280;2750;49.050;9.250;2022-11-20T18:35:16;98010.03;;;9.41;88.73
5455;BME280;2750;49.050;9.250;2022-11-20T18:40:17;98008.75;;;9.48;89.60
5455;BME280;2750;49.050;9.250;2022-11-20T18:45:20;98003.41;;;9.51;88.49
5455;BME280;2750;49.050;9.250;2022-11-20T18:50:22;98013.94;;;9.32;89.04
5455;BME280;2750;49.050;9.250;2022-11-20T18:55:23;98003.00;;;9.11;89.26
5455;BME280;2750;49.050;9.250;2022-11-20T19:00:26;98005.75;;;9.55;88.59
5455;BME280;2750;49.050;9.250;2022-11-20T19:05:28;98009.94;;;9.58;88.55
5455;BME280;2750;49.050;9.250;2022-11-20T19:10:29;98008.69;;;8.70;90.78
5455;BME280;2750;49.050;9.250;2022-11-20T19:15:33;98007.75;;;9.03;91.45
5455;BME280;2750;49.050;9.250;2022-11-20T19:20:36;97999.81;;;9.06;91.13
5455;BME280;2750;49.050;9.250;2022-11-20T19:25:37;97999.94;;;8.88;92.72
5455;BME280;2750;49.050;9.250;2022-11-20T19:30:40;97998.69;;;8.79;92.55
5455;BME280;2750;49.050;9.250;2022-11-20T19:35:42;97996.94;;;8.30;95.65
5455;BME280;2750;49.050;9.250;2022-11-20T19:40:43;97986.94;;;8.56;96.28
5455;BME280;2750;49.050;9.250;2022-11-20T19:45:46;97986.81;;;8.75;94.09
5455;BME280;2750;49.050;9.250;2022-11-20T19:50:48;97977.53;;;8.71;93.12
5455;BME280;2750;49.050;9.250;2022-11-20T19:55:56;97980.28;;;8.85;93.37
5455;BME280;2750;49.050;9.250;2022-11-20T20:01:06;97957.09;;;9.31;92.00
5455;BME280;2750;49.050;9.250;2022-11-20T20:06:09;97958.22;;;8.94;92.91
5455;BME280;2750;49.050;9.250;2022-11-20T20:11:13;97952.91;;;9.12;93.71
5455;BME280;2750;49.050;9.250;2022-11-20T20:16:18;97953.72;;;9.29;92.47
5455;BME280;2750;49.050;9.250;2022-11-20T20:21:20;97950.59;;;9.24;92.12
5455;BME280;2750;49.050;9.250;2022-11-20T20:26:23;97952.22;;;8.28;93.36
5455;BME280;2750;49.050;9.250;2022-11-20T20:31:27;97954.28;;;8.04;93.81
5455;BME280;2750;49.050;9.250;2022-11-20T20:36:30;97955.88;;;8.06;94.40
5455;BME280;2750;49.050;9.250;2022-11-20T20:41:31;97954.19;;;8.05;94.46
5455;BME280;2750;49.050;9.250;2022-11-20T20:46:34;97968.72;;;7.91;94.98
5455;BME280;2750;49.050;9.250;2022-11-20T20:51:36;97967.88;;;7.90;94.95
5455;BME280;2750;49.050;9.250;2022-11-20T20:56:37;97964.69;;;7.85;94.25
5455;BME280;2750;49.050;9.250;2022-11-20T21:01:40;97970.00;;;8.16;93.66
5455;BME280;2750;49.050;9.250;2022-11-20T21:06:42;97973.28;;;8.03;94.67
5455;BME280;2750;49.050;9.250;2022-11-20T21:11:43;97983.38;;;8.07;93.53
5455;BME280;2750;49.050;9.250;2022-11-20T21:16:46;97975.91;;;8.01;93.42
5455;BME280;2750;49.050;9.250;2022-11-20T21:21:47;97959.47;;;8.04;94.28
5455;BME280;2750;49.050;9.250;2022-11-20T21:27:04;97964.44;;;7.37;97.63
5455;BME280;2750;49.050;9.250;2022-11-20T21:32:07;97957.91;;;7.65;97.40
5455;BME280;2750;49.050;9.250;2022-11-20T21:37:08;97965.75;;;7.81;96.53
5455;BME280;2750;49.050;9.250;2022-11-20T21:42:10;97962.34;;;7.81;97.46
5455;BME280;2750;49.050;9.250;2022-11-20T21:47:15;97948.72;;;7.60;97.91
5455;BME280;2750;49.050;9.250;2022-11-20T21:52:16;97946.44;;;7.71;98.01
5455;BME280;2750;49.050;9.250;2022-11-20T21:57:18;97945.69;;;7.69;97.19
5455;BME280;2750;49.050;9.250;2022-11-20T22:02:21;97951.59;;;7.71;96.28
5455;BME280;2750;49.050;9.250;2022-11-20T22:07:22;97962.31;;;7.63;97.97
5455;BME280;2750;49.050;9.250;2022-11-20T22:12:24;97957.06;;;7.82;96.40
5455;BME280;2750;49.050;9.250;2022-11-20T22:17:27;97947.38;;;7.70;95.56
5455;BME280;2750;49.050;9.250;2022-11-20T22:22:42;97953.50;;;7.67;97.60
5455;BME280;2750;49.050;9.250;2022-11-20T22:27:45;97946.97;;;7.60;97.25
5455;BME280;2750;49.050;9.250;2022-11-20T22:32:48;97960.13;;;7.90;95.74
5455;BME280;2750;49.050;9.250;2022-11-20T22:37:50;97955.41;;;7.64;96.62
5455;BME280;2750;49.050;9.250;2022-11-20T22:42:51;97965.75;;;7.81;96.13
5455;BME280;2750;49.050;9.250;2022-11-20T22:47:54;97966.06;;;7.92;96.37
5455;BME280;2750;49.050;9.250;2022-11-20T22:52:56;97970.84;;;8.00;96.84
5455;BME280;2750;49.050;9.250;2022-11-20T22:57:57;97978.50;;;8.01;95.70
5455;BME280;2750;49.050;9.250;2022-11-20T23:03:00;97970.94;;;8.15;94.74
5455;BME280;2750;49.050;9.250;2022-11-20T23:08:02;97975.72;;;7.89;95.85
5455;BME280;2750;49.050;9.250;2022-11-20T23:13:03;97972.00;;;8.11;94.57
5455;BME280;2750;49.050;9.250;2022-11-20T23:18:06;97974.56;;;8.11;94.09
5455;BME280;2750;49.050;9.250;2022-11-20T23:23:08;97987.28;;;8.33;95.17
5455;BME280;2750;49.050;9.250;2022-11-20T23:28:09;97981.09;;;8.36;94.03
5455;BME280;2750;49.050;9.250;2022-11-20T23:33:12;97986.44;;;8.33;93.55
5455;BME280;2750;49.050;9.250;2022-11-20T23:38:14;97984.91;;;8.46;93.72
5455;BME280;2750;49.050;9.250;2022-11-20T23:43:16;97993.72;;;8.42;92.27
5455;BME280;2750;49.050;9.250;2022-11-20T23:48:20;97989.00;;;8.50;92.48
5455;BME280;2750;49.050;9.250;2022-11-20T23:53:22;97995.09;;;8.49;92.87
5455;BME280;2750;49.050;9.250;2022-11-20T23:58:28;97983.50;;;8.73;91.44
